createdAt,value
2023-02-17T00:00:56.151Z,12.07
2023-02-17T00:03:24.209Z,13.13
2023-02-17T00:05:52.065Z,12.50
2023-02-17T00:08:19.702Z,12.50
2023-02-17T00:10:56.297Z,11.93
2023-02-17T00:13:23.946Z,11.20
2023-02-17T00:15:51.750Z,11.60
2023-02-17T00:18:20.820Z,10.73
2023-02-17T00:20:48.430Z,10.50
2023-02-17T00:23:16.223Z,11.30
2023-02-17T00:25:44.004Z,11.10
2023-02-17T00:28:11.856Z,11.70
2023-02-17T00:30:40.024Z,11.10
2023-02-17T00:33:07.727Z,11.03
2023-02-17T00:35:40.589Z,10.90
2023-02-17T00:38:08.298Z,10.77
2023-02-17T00:40:35.934Z,11.30
2023-02-17T00:43:03.606Z,9.97
2023-02-17T00:45:31.214Z,10.13
2023-02-17T00:47:58.766Z,11.60
2023-02-17T00:50:26.441Z,10.20
2023-02-17T00:52:55.518Z,10.07
2023-02-17T00:55:23.290Z,11.13
2023-02-17T00:57:51.106Z,10.93
2023-02-17T01:00:19.350Z,10.27
2023-02-17T01:02:47.110Z,9.70
2023-02-17T01:05:14.820Z,10.07
2023-02-17T01:07:42.619Z,9.83
2023-02-17T01:10:12.283Z,9.87
2023-02-17T01:12:40.059Z,9.43
2023-02-17T01:15:08.697Z,9.77
2023-02-17T01:17:36.375Z,8.80
2023-02-17T01:20:04.665Z,10.33
2023-02-17T01:22:32.346Z,9.23
2023-02-17T01:25:00.104Z,9.77
2023-02-17T01:27:29.346Z,9.20
2023-02-17T01:29:57.077Z,9.50
2023-02-17T01:32:24.807Z,9.30
2023-02-17T01:34:52.512Z,8.80
2023-02-17T01:37:20.141Z,9.00
2023-02-17T01:39:47.793Z,8.67
2023-02-17T01:42:16.788Z,9.93
2023-02-17T01:45:31.149Z,8.87
2023-02-17T01:48:01.413Z,8.73
2023-02-17T01:50:33.274Z,8.90
2023-02-17T01:53:02.722Z,9.03
2023-02-17T01:55:30.834Z,8.90
2023-02-17T01:58:00.146Z,9.00
2023-02-17T02:00:30.400Z,8.67
2023-02-17T02:02:58.428Z,8.70
2023-02-17T02:05:26.193Z,8.57
2023-02-17T02:07:54.458Z,9.07
2023-02-17T02:10:22.238Z,8.43
2023-02-17T02:12:49.945Z,8.60
2023-02-17T02:15:19.409Z,8.40
2023-02-17T02:17:59.647Z,8.30
2023-02-17T02:21:08.508Z,8.60
2023-02-17T02:23:51.430Z,8.33
2023-02-17T02:26:55.156Z,8.00
2023-02-17T02:29:45.792Z,7.83
2023-02-17T02:32:28.885Z,6.93
2023-02-17T02:34:58.465Z,7.77
2023-02-17T02:37:30.787Z,7.10
2023-02-17T02:40:01.531Z,7.63
2023-02-17T02:42:29.322Z,7.20
2023-02-17T02:44:57.411Z,7.47
2023-02-17T02:47:45.385Z,8.03
2023-02-17T02:50:15.954Z,7.00
2023-02-17T02:52:51.541Z,7.63
2023-02-17T02:55:24.448Z,7.53
2023-02-17T02:57:55.499Z,7.50
2023-02-17T03:00:28.355Z,8.27
2023-02-17T03:03:00.963Z,8.40
2023-02-17T03:05:32.991Z,8.77
2023-02-17T03:08:03.115Z,7.50
2023-02-17T03:10:31.068Z,8.17
2023-02-17T03:12:59.258Z,8.13
2023-02-17T03:15:30.956Z,8.53
2023-02-17T03:18:00.430Z,8.67
2023-02-17T03:20:29.239Z,8.87
2023-02-17T03:22:57.193Z,7.77
2023-02-17T03:25:24.848Z,8.60
2023-02-17T03:27:52.595Z,7.87
2023-02-17T03:30:20.636Z,7.83
2023-02-17T03:32:48.492Z,8.00
2023-02-17T03:35:17.450Z,7.97
2023-02-17T03:37:45.105Z,7.53
2023-02-17T03:40:13.298Z,7.30
2023-02-17T03:42:41.067Z,8.00
2023-02-17T03:45:09.506Z,7.37
2023-02-17T03:47:37.208Z,8.63
2023-02-17T03:50:05.244Z,7.40
2023-02-17T03:52:34.365Z,7.20
2023-02-17T03:55:02.016Z,6.77
2023-02-17T03:57:31.809Z,7.00
2023-02-17T03:59:59.584Z,6.63
2023-02-17T04:02:27.318Z,6.53
2023-02-17T04:04:54.923Z,6.27
2023-02-17T04:07:22.605Z,6.83
2023-02-17T04:09:51.601Z,6.37
2023-02-17T04:12:19.315Z,6.40
2023-02-17T04:14:47.007Z,5.77
2023-02-17T04:17:14.791Z,5.87
2023-02-17T04:19:42.466Z,5.63
2023-02-17T04:22:10.203Z,5.37
2023-02-17T04:24:38.271Z,5.70
2023-02-17T04:27:07.595Z,5.60
2023-02-17T04:29:35.439Z,4.83
2023-02-17T04:32:03.273Z,5.53
2023-02-17T04:34:30.990Z,5.37
2023-02-17T04:36:58.764Z,5.33
2023-02-17T04:39:26.435Z,5.13
2023-02-17T04:41:54.102Z,5.13
2023-02-17T04:44:23.168Z,4.70
2023-02-17T04:46:50.852Z,4.83
2023-02-17T04:49:18.538Z,4.80
2023-02-17T04:51:46.250Z,4.53
2023-02-17T04:54:13.885Z,5.00
2023-02-17T04:56:41.584Z,5.17
2023-02-17T04:59:09.215Z,4.70
2023-02-17T05:01:38.374Z,4.93
2023-02-17T05:04:06.182Z,4.67
2023-02-17T05:06:33.849Z,4.63
2023-02-17T05:09:01.634Z,4.30
2023-02-17T05:11:29.301Z,4.27
2023-02-17T05:13:56.954Z,4.50
2023-02-17T05:16:24.761Z,4.40
2023-02-17T05:18:53.759Z,4.67
2023-02-17T05:21:21.380Z,3.83
2023-02-17T05:23:49.108Z,4.00
2023-02-17T05:26:16.891Z,3.90
2023-02-17T05:28:44.594Z,4.30
2023-02-17T05:31:12.534Z,4.33
2023-02-17T05:33:40.385Z,4.30
2023-02-17T05:36:11.687Z,4.07
2023-02-17T05:38:40.017Z,4.00
2023-02-17T05:41:10.413Z,4.10
2023-02-17T05:43:38.068Z,4.47
2023-02-17T05:46:06.804Z,4.47
2023-02-17T05:48:34.919Z,4.40
2023-02-17T05:51:02.841Z,4.13
2023-02-17T05:53:32.084Z,4.20
2023-02-17T05:55:59.787Z,4.07
2023-02-17T05:58:28.247Z,4.00
2023-02-17T06:00:55.905Z,4.10
2023-02-17T06:03:23.618Z,4.67
2023-02-17T06:05:51.345Z,4.77
2023-02-17T06:08:18.982Z,4.63
2023-02-17T06:10:48.172Z,3.83
2023-02-17T06:13:15.772Z,4.27
2023-02-17T06:15:43.581Z,4.47
2023-02-17T06:18:11.203Z,4.57
2023-02-17T06:20:39.068Z,4.53
2023-02-17T06:23:06.877Z,5.07
2023-02-17T06:25:34.484Z,4.40
2023-02-17T06:28:03.500Z,4.87
2023-02-17T06:30:31.548Z,4.90
2023-02-17T06:32:59.390Z,4.60
2023-02-17T06:35:27.265Z,4.40
2023-02-17T06:37:55.146Z,4.43
2023-02-17T06:40:23.110Z,4.00
2023-02-17T06:42:50.762Z,4.87
2023-02-17T06:45:19.814Z,4.10
2023-02-17T06:47:47.786Z,4.33
2023-02-17T06:50:16.031Z,3.90
2023-02-17T06:52:43.599Z,3.83
2023-02-17T06:55:11.801Z,3.67
2023-02-17T06:57:39.620Z,3.50
2023-02-17T07:00:08.773Z,3.90
2023-02-17T07:02:39.894Z,3.30
2023-02-17T07:05:08.424Z,3.50
2023-02-17T07:07:36.202Z,3.20
2023-02-17T07:10:04.379Z,3.67
2023-02-17T07:12:32.011Z,3.30
2023-02-17T07:14:59.877Z,3.43
2023-02-17T07:17:27.514Z,3.47
2023-02-17T07:19:56.467Z,3.33
2023-02-17T07:22:25.471Z,3.40
2023-02-17T07:24:53.388Z,3.20
2023-02-17T07:27:21.088Z,3.60
2023-02-17T07:29:48.736Z,2.50
2023-02-17T07:32:16.355Z,3.37
2023-02-17T07:34:44.111Z,2.97
2023-02-17T07:37:13.021Z,3.50
2023-02-17T07:39:40.746Z,3.33
2023-02-17T07:42:09.826Z,3.80
2023-02-17T07:44:37.499Z,3.73
2023-02-17T07:47:05.341Z,3.90
2023-02-17T07:49:33.369Z,3.37
2023-02-17T07:52:01.811Z,4.37
2023-02-17T07:54:32.079Z,3.83
2023-02-17T07:56:59.703Z,4.20
2023-02-17T07:59:27.342Z,4.30
2023-02-17T08:01:54.944Z,4.27
2023-02-17T08:04:22.680Z,3.90
2023-02-17T08:06:50.412Z,4.47
2023-02-17T08:09:35.579Z,4.13
2023-02-17T08:12:22.846Z,4.07
2023-02-17T08:14:50.537Z,4.67
2023-02-17T08:17:18.294Z,3.77
2023-02-17T08:19:49.069Z,4.30
2023-02-17T08:22:17.612Z,4.20
2023-02-17T08:24:45.508Z,4.30
2023-02-17T08:27:18.006Z,4.17
2023-02-17T08:29:46.119Z,4.20
2023-02-17T08:32:14.450Z,3.97
2023-02-17T08:34:42.155Z,4.03
2023-02-17T08:37:10.673Z,4.20
2023-02-17T08:39:38.935Z,4.37
2023-02-17T08:42:07.165Z,3.97
2023-02-17T08:44:37.341Z,3.87
2023-02-17T08:47:06.120Z,4.17
2023-02-17T08:49:33.883Z,4.47
2023-02-17T08:52:01.730Z,4.00
2023-02-17T08:54:29.469Z,4.23
2023-02-17T08:56:58.570Z,4.20
2023-02-17T08:59:26.326Z,4.70
2023-02-17T09:01:55.685Z,4.67
2023-02-17T09:04:23.562Z,4.33
2023-02-17T09:06:53.484Z,4.07
2023-02-17T09:09:26.790Z,5.43
2023-02-17T09:11:55.951Z,4.77
2023-02-17T09:14:24.962Z,5.03
2023-02-17T09:16:53.055Z,4.77
2023-02-17T09:19:22.978Z,4.60
2023-02-17T09:26:51.085Z,5.00
2023-02-17T09:29:21.180Z,4.20
2023-02-17T09:31:49.019Z,4.07
2023-02-17T09:34:16.793Z,4.20
2023-02-17T09:36:45.869Z,4.07
2023-02-17T09:39:14.827Z,3.90
2023-02-17T09:41:44.794Z,4.00
2023-02-17T09:44:18.765Z,3.70
2023-02-17T09:49:21.268Z,4.33
2023-02-17T09:54:19.789Z,4.10
2023-02-17T09:56:46.963Z,3.90
2023-02-17T10:01:43.120Z,3.93
2023-02-17T10:06:40.034Z,3.57
2023-02-17T10:11:39.801Z,3.90
2023-02-17T10:14:13.757Z,4.00
2023-02-17T10:16:47.028Z,3.93
2023-02-17T10:19:17.777Z,4.23
2023-02-17T10:21:47.936Z,3.67
2023-02-17T10:24:15.570Z,3.83
2023-02-17T10:26:58.851Z,3.77
2023-02-17T10:29:35.186Z,4.03
2023-02-17T10:32:13.370Z,4.20
2023-02-17T10:34:45.026Z,3.47
2023-02-17T10:37:15.905Z,3.50
2023-02-17T10:39:48.886Z,3.50
2023-02-17T10:42:22.497Z,3.70
2023-02-17T10:44:51.301Z,3.73
2023-02-17T10:47:19.393Z,3.33
2023-02-17T10:49:49.529Z,3.50
2023-02-17T10:52:19.465Z,3.60
2023-02-17T10:54:50.054Z,3.47
2023-02-17T10:57:20.895Z,3.30
2023-02-17T10:59:49.571Z,3.53
2023-02-17T11:02:20.237Z,3.50
2023-02-17T11:04:49.923Z,3.90
2023-02-17T11:07:19.647Z,3.47
2023-02-17T11:09:48.757Z,3.77
2023-02-17T11:12:22.011Z,4.57
2023-02-17T11:14:51.779Z,4.20
2023-02-17T11:17:24.219Z,4.33
2023-02-17T11:19:57.868Z,4.23
2023-02-17T11:22:33.217Z,4.30
2023-02-17T11:25:02.275Z,4.40
2023-02-17T11:27:31.328Z,4.07
2023-02-17T11:30:08.517Z,4.03
2023-02-17T11:32:36.241Z,3.53
2023-02-17T11:35:06.278Z,3.50
2023-02-17T11:37:34.740Z,3.63
2023-02-17T11:40:02.396Z,3.17
2023-02-17T11:42:33.202Z,3.20
2023-02-17T11:45:19.422Z,2.80
2023-02-17T11:47:54.017Z,2.50
2023-02-17T11:50:40.819Z,2.60
2023-02-17T11:53:29.256Z,2.10
2023-02-17T11:56:06.690Z,2.40
2023-02-17T12:01:23.874Z,1.97
2023-02-17T12:04:23.469Z,1.90
2023-02-17T12:07:13.893Z,1.83
2023-02-17T12:09:50.154Z,1.80
2023-02-17T12:12:23.267Z,1.90
2023-02-17T12:15:03.528Z,1.90
2023-02-17T12:17:41.265Z,1.60
2023-02-17T12:20:22.062Z,1.90
2023-02-17T12:23:02.291Z,1.87
2023-02-17T12:25:32.695Z,1.63
2023-02-17T12:28:10.698Z,1.80
2023-02-17T12:30:48.347Z,2.20
2023-02-17T12:33:26.574Z,2.10
2023-02-17T12:35:55.956Z,2.07
2023-02-17T12:38:27.818Z,2.07
2023-02-17T12:40:59.997Z,2.33
2023-02-17T12:43:30.483Z,1.87
2023-02-17T12:46:00.361Z,1.90
2023-02-17T12:48:32.197Z,2.30
2023-02-17T12:51:04.654Z,1.87
2023-02-17T12:53:42.236Z,2.00
2023-02-17T12:56:28.417Z,1.93
2023-02-17T12:58:58.633Z,2.20
2023-02-17T13:01:27.569Z,2.27
2023-02-17T13:03:56.533Z,2.27
2023-02-17T13:06:27.309Z,2.27
2023-02-17T13:08:59.715Z,2.33
2023-02-17T13:11:30.149Z,2.17
2023-02-17T13:13:58.830Z,2.10
2023-02-17T13:16:28.430Z,1.87
2023-02-17T13:19:08.393Z,2.10
2023-02-17T13:21:36.017Z,1.97
2023-02-17T13:24:07.290Z,1.73
2023-02-17T13:26:35.650Z,1.90
2023-02-17T13:29:12.905Z,1.83
2023-02-17T13:31:52.498Z,2.00
2023-02-17T13:34:32.903Z,1.40
2023-02-17T13:37:03.269Z,1.23
2023-02-17T13:39:33.797Z,1.30
2023-02-17T13:42:02.537Z,1.10
2023-02-17T13:44:32.491Z,1.30
2023-02-17T13:47:02.091Z,1.17
2023-02-17T13:49:35.016Z,1.27
2023-02-17T13:52:18.025Z,1.03
2023-02-17T13:54:55.885Z,1.40
2023-02-17T13:57:25.012Z,1.27
2023-02-17T13:59:52.604Z,1.37
2023-02-17T14:02:35.088Z,1.20
2023-02-17T14:05:12.976Z,1.13
2023-02-17T14:07:40.921Z,1.27
2023-02-17T14:10:18.844Z,1.00
2023-02-17T14:12:48.721Z,1.00
2023-02-17T14:15:17.471Z,1.10
2023-02-17T14:17:45.359Z,1.00
2023-02-17T14:20:33.761Z,0.90
2023-02-17T14:23:04.801Z,0.80
2023-02-17T14:25:34.404Z,1.00
2023-02-17T14:28:03.972Z,1.20
2023-02-17T14:30:33.913Z,1.10
2023-02-17T14:33:08.924Z,0.90
2023-02-17T14:35:39.331Z,0.97
2023-02-17T14:38:20.856Z,0.93
2023-02-17T14:40:48.718Z,0.97
2023-02-17T14:43:16.493Z,1.00
2023-02-17T14:45:44.121Z,1.00
2023-02-17T14:48:11.795Z,1.00
2023-02-17T14:50:42.728Z,1.03
2023-02-17T14:53:13.188Z,1.10
2023-02-17T14:55:45.830Z,1.17
2023-02-17T14:58:18.889Z,1.10
2023-02-17T15:00:46.665Z,1.17
2023-02-17T15:03:14.444Z,1.20
2023-02-17T15:05:43.904Z,2.07
2023-02-17T15:08:13.763Z,1.60
2023-02-17T15:10:41.682Z,1.60
2023-02-17T15:13:13.299Z,1.30
2023-02-17T15:15:44.793Z,1.10
2023-02-17T15:18:12.885Z,1.10
2023-02-17T15:20:43.668Z,1.23
2023-02-17T15:23:13.205Z,1.10
2023-02-17T15:25:40.893Z,1.03
2023-02-17T15:28:08.656Z,1.20
2023-02-17T15:30:37.106Z,1.37
2023-02-17T15:33:04.975Z,1.00
2023-02-17T15:35:32.599Z,1.47
2023-02-17T15:38:01.629Z,1.10
2023-02-17T15:40:30.282Z,0.97
2023-02-17T15:43:01.022Z,0.90
2023-02-17T15:45:28.637Z,1.00
2023-02-17T15:48:00.759Z,1.00
2023-02-17T15:50:28.561Z,1.10
2023-02-17T15:52:56.190Z,1.00
2023-02-17T15:55:28.448Z,0.93
2023-02-17T15:57:59.134Z,0.70
2023-02-17T16:00:29.101Z,1.00
2023-02-17T16:02:56.975Z,1.10
2023-02-17T16:05:27.111Z,0.93
2023-02-17T16:07:55.413Z,0.90
2023-02-17T16:10:27.332Z,0.83
2023-02-17T16:12:57.167Z,0.77
2023-02-17T16:15:26.860Z,0.83
2023-02-17T16:17:55.914Z,1.20
2023-02-17T16:20:25.842Z,1.07
2023-02-17T16:22:55.474Z,0.90
2023-02-17T16:25:26.975Z,1.10
2023-02-17T16:27:54.711Z,0.87
2023-02-17T16:30:23.585Z,1.00
2023-02-17T16:32:52.415Z,1.00
2023-02-17T16:35:21.349Z,0.87
2023-02-17T16:37:53.600Z,0.77
2023-02-17T16:40:22.625Z,0.83
2023-02-17T16:42:51.860Z,0.80
2023-02-17T16:45:20.977Z,1.00
2023-02-17T16:47:50.700Z,0.97
2023-02-17T16:50:24.408Z,1.00
2023-02-17T16:52:52.932Z,1.00
2023-02-17T16:55:22.387Z,1.20
2023-02-17T16:57:52.076Z,0.90
2023-02-17T17:00:22.051Z,1.20
2023-02-17T17:02:50.258Z,1.20
2023-02-17T17:05:21.688Z,1.30
2023-02-17T17:07:51.121Z,1.10
2023-02-17T17:10:20.489Z,1.13
2023-02-17T17:12:48.488Z,2.20
2023-02-17T17:15:18.116Z,2.17
2023-02-17T17:17:49.125Z,2.57
2023-02-17T17:20:18.082Z,2.10
2023-02-17T17:22:46.675Z,2.30
2023-02-17T17:25:14.820Z,2.70
2023-02-17T17:27:42.619Z,2.60
2023-02-17T17:30:18.541Z,2.17
2023-02-17T17:32:46.260Z,1.70
2023-02-17T17:35:14.153Z,2.40
2023-02-17T17:37:41.763Z,1.77
2023-02-17T17:40:16.254Z,1.97
2023-02-17T17:42:43.927Z,1.70
2023-02-17T17:45:12.168Z,1.80
2023-02-17T17:47:41.719Z,2.00
2023-02-17T17:50:13.509Z,2.17
2023-02-17T17:52:41.167Z,1.97
2023-02-17T17:55:09.144Z,1.97
2023-02-17T17:57:36.994Z,2.10
2023-02-17T18:00:06.863Z,2.13
2023-02-17T18:02:34.489Z,1.90
2023-02-17T18:05:03.788Z,2.30
2023-02-17T18:07:33.952Z,1.73
2023-02-17T18:10:03.253Z,1.80
2023-02-17T18:12:30.946Z,1.90
2023-02-17T18:15:02.528Z,1.50
2023-02-17T18:17:30.393Z,2.00
2023-02-17T18:19:58.113Z,1.90
2023-02-17T18:22:26.980Z,1.63
2023-02-17T18:24:54.688Z,2.07
2023-02-17T18:27:22.888Z,2.10
2023-02-17T18:29:50.652Z,2.10
2023-02-17T18:32:18.222Z,1.80
2023-02-17T18:34:46.044Z,2.10
2023-02-17T18:37:14.390Z,2.10
2023-02-17T18:39:43.859Z,1.93
2023-02-17T18:42:11.537Z,2.00
2023-02-17T18:44:39.422Z,1.80
2023-02-17T18:47:07.030Z,1.93
2023-02-17T18:49:34.890Z,2.10
2023-02-17T18:52:04.268Z,1.90
2023-02-17T18:54:32.129Z,2.27
2023-02-17T18:57:03.011Z,2.53
2023-02-17T18:59:30.694Z,2.87
2023-02-17T19:01:59.730Z,2.63
2023-02-17T19:04:28.961Z,2.50
2023-02-17T19:06:56.616Z,2.60
2023-02-17T19:09:24.585Z,2.83
2023-02-17T19:11:52.684Z,2.60
2023-02-17T19:14:21.775Z,2.60
2023-02-17T19:16:50.780Z,2.50
2023-02-17T19:19:18.489Z,2.40
2023-02-17T19:21:46.118Z,2.40
2023-02-17T19:24:17.268Z,2.20
2023-02-17T19:26:45.147Z,2.43
2023-02-17T19:29:12.932Z,2.30
2023-02-17T19:31:44.893Z,2.40
2023-02-17T19:34:13.707Z,2.70
2023-02-17T19:36:43.673Z,2.30
2023-02-17T19:39:12.674Z,2.50
2023-02-17T19:41:40.671Z,2.87
2023-02-17T19:44:09.738Z,2.70
2023-02-17T19:46:37.827Z,3.00
2023-02-17T19:49:13.234Z,2.90
2023-02-17T19:51:40.950Z,3.10
2023-02-17T19:54:08.602Z,2.50
2023-02-17T19:56:36.947Z,2.97
2023-02-17T19:59:05.065Z,2.80
2023-02-17T20:01:34.679Z,3.37
2023-02-17T20:04:05.117Z,3.00
2023-02-17T20:06:41.149Z,2.50
2023-02-17T20:09:13.722Z,3.10
2023-02-17T20:11:41.935Z,2.90
2023-02-17T20:14:10.994Z,3.00
2023-02-17T20:16:43.253Z,3.13
2023-02-17T20:19:14.313Z,3.50
2023-02-17T20:21:49.520Z,2.90
2023-02-17T20:24:18.033Z,3.00
2023-02-17T20:26:47.673Z,3.20
2023-02-17T20:29:16.349Z,3.27
2023-02-17T20:31:44.505Z,2.97
2023-02-17T20:34:24.669Z,3.10
2023-02-17T20:36:55.163Z,3.03
2023-02-17T20:39:25.590Z,3.50
2023-02-17T20:41:54.050Z,3.37
2023-02-17T20:44:21.811Z,3.57
2023-02-17T20:46:58.512Z,3.80
2023-02-17T20:49:27.766Z,3.73
2023-02-17T20:52:02.780Z,3.33
2023-02-17T20:54:31.785Z,3.50
2023-02-17T20:57:01.086Z,3.53
2023-02-17T20:59:40.783Z,3.00
2023-02-17T21:02:10.023Z,3.73
2023-02-17T21:04:40.866Z,3.47
2023-02-17T21:07:11.139Z,3.50
2023-02-17T21:09:39.350Z,4.13
2023-02-17T21:12:08.833Z,3.60
2023-02-17T21:14:37.028Z,3.57
2023-02-17T21:17:04.980Z,4.13
2023-02-17T21:19:32.929Z,3.57
2023-02-17T21:22:00.856Z,3.70
2023-02-17T21:24:30.028Z,3.73
2023-02-17T21:26:57.878Z,3.50
2023-02-17T21:29:25.672Z,3.53
2023-02-17T21:31:54.464Z,3.30
2023-02-17T21:34:22.317Z,3.20
2023-02-17T21:36:49.957Z,3.30
2023-02-17T21:39:17.610Z,3.23
2023-02-17T21:41:46.760Z,3.67
2023-02-17T21:44:28.705Z,3.00
2023-02-17T21:46:56.502Z,3.47
2023-02-17T21:49:24.756Z,3.77
2023-02-17T21:51:52.444Z,3.27
2023-02-17T21:54:20.108Z,3.47
2023-02-17T21:56:49.203Z,3.53
2023-02-17T21:59:16.895Z,3.23
2023-02-17T22:01:44.834Z,3.33
2023-02-17T22:04:12.533Z,3.47
2023-02-17T22:06:43.488Z,3.03
2023-02-17T22:09:13.644Z,3.03
2023-02-17T22:11:42.907Z,3.00
2023-02-17T22:14:14.225Z,3.53
2023-02-17T22:16:42.350Z,3.07
2023-02-17T22:19:14.135Z,3.20
2023-02-17T22:21:41.755Z,3.60
2023-02-17T22:24:10.048Z,3.20
2023-02-17T22:26:37.707Z,3.53
2023-02-17T22:29:05.830Z,3.33
2023-02-17T22:31:35.297Z,3.33
2023-02-17T22:34:06.279Z,3.33
2023-02-17T22:36:35.621Z,3.00
2023-02-17T22:39:03.846Z,3.43
2023-02-17T22:41:31.755Z,3.17
2023-02-17T22:44:00.907Z,3.30
2023-02-17T22:46:28.612Z,3.40
2023-02-17T22:48:58.621Z,3.50
2023-02-17T22:51:29.500Z,3.10
2023-02-17T22:53:57.640Z,3.60
2023-02-17T22:56:25.588Z,3.53
2023-02-17T22:58:56.370Z,3.80
2023-02-17T23:01:24.784Z,4.10
2023-02-17T23:03:54.426Z,3.60
2023-02-17T23:06:25.442Z,3.70
2023-02-17T23:08:53.811Z,3.83
2023-02-17T23:11:43.429Z,3.50
2023-02-17T23:14:11.701Z,3.63
2023-02-17T23:16:39.544Z,3.40
2023-02-17T23:19:08.134Z,3.90
2023-02-17T23:21:37.411Z,3.80
2023-02-17T23:24:05.832Z,3.70
2023-02-17T23:26:33.553Z,3.07
2023-02-17T23:29:01.270Z,3.53
2023-02-17T23:31:29.574Z,4.00
2023-02-17T23:33:57.349Z,3.33
2023-02-17T23:36:25.101Z,3.60
2023-02-17T23:38:56.751Z,3.57
2023-02-17T23:41:24.349Z,3.53
2023-02-17T23:43:52.058Z,3.50
2023-02-17T23:46:20.578Z,3.70
2023-02-17T23:48:48.395Z,3.80
2023-02-17T23:51:17.776Z,3.63
2023-02-17T23:53:46.012Z,3.50
2023-02-17T23:56:17.109Z,3.40
2023-02-17T23:58:44.930Z,3.67
